createdAt,value
2019-01-19T00:00:49.170Z,1.44
2019-01-19T00:03:53.994Z,1.40
2019-01-19T00:06:34.458Z,1.40
2019-01-19T00:09:14.918Z,1.39
2019-01-19T00:11:55.309Z,1.39
2019-01-19T00:14:24.892Z,1.39
2019-01-19T00:17:05.021Z,1.39
2019-01-19T00:20:09.781Z,1.41
2019-01-19T00:22:41.252Z,1.40
2019-01-19T00:25:38.337Z,1.39
2019-01-19T00:28:18.352Z,1.37
2019-01-19T00:30:52.425Z,1.38
2019-01-19T00:33:50.633Z,1.39
2019-01-19T00:36:25.035Z,1.36
2019-01-19T00:39:08.405Z,1.35
2019-01-19T00:42:08.581Z,1.34
2019-01-19T00:44:45.827Z,1.35
2019-01-19T00:47:20.130Z,1.33
2019-01-19T00:49:51.716Z,1.33
2019-01-19T00:52:26.080Z,1.33
2019-01-19T00:55:18.905Z,1.33
2019-01-19T00:57:52.972Z,1.32
2019-01-19T01:00:33.335Z,1.31
2019-01-19T01:03:19.421Z,1.31
2019-01-19T01:05:56.850Z,1.30
2019-01-19T01:08:43.418Z,1.30
2019-01-19T01:11:17.867Z,1.29
2019-01-19T01:14:07.404Z,1.26
2019-01-19T01:16:52.141Z,1.26
2019-01-19T01:19:45.056Z,1.23
2019-01-19T01:22:29.386Z,1.24
2019-01-19T01:25:01.045Z,1.23
2019-01-19T01:27:38.422Z,1.23
2019-01-19T01:30:15.890Z,1.22
2019-01-19T01:32:53.415Z,1.21
2019-01-19T01:35:36.991Z,1.20
2019-01-19T01:38:23.849Z,1.18
2019-01-19T01:41:11.878Z,1.17
2019-01-19T01:43:43.371Z,1.17
2019-01-19T01:46:46.635Z,1.15
2019-01-19T01:49:30.408Z,1.16
2019-01-19T01:52:13.620Z,1.16
2019-01-19T01:54:54.114Z,1.14
2019-01-19T01:57:24.974Z,1.13
2019-01-19T01:59:59.008Z,1.12
2019-01-19T02:02:36.438Z,1.10
2019-01-19T02:05:27.835Z,1.11
2019-01-19T02:08:08.276Z,1.09
2019-01-19T02:10:56.487Z,1.10
2019-01-19T02:13:36.784Z,1.09
2019-01-19T02:16:23.461Z,1.07
2019-01-19T02:19:15.874Z,1.07
2019-01-19T02:21:49.945Z,1.06
2019-01-19T02:24:55.074Z,1.02
2019-01-19T02:27:32.423Z,1.03
2019-01-19T02:30:12.548Z,1.00
2019-01-19T02:32:50.012Z,0.99
2019-01-19T02:35:30.072Z,0.99
2019-01-19T02:38:04.323Z,0.99
2019-01-19T02:40:39.165Z,1.01
2019-01-19T02:43:10.678Z,0.99
2019-01-19T02:45:50.838Z,0.97
2019-01-19T02:48:22.338Z,0.97
2019-01-19T02:50:59.763Z,0.96
2019-01-19T02:53:31.326Z,0.94
2019-01-19T02:56:02.829Z,0.93
2019-01-19T02:58:34.329Z,0.92
2019-01-19T03:01:05.852Z,0.90
2019-01-19T03:03:43.019Z,0.88
2019-01-19T03:06:17.520Z,0.86
2019-01-19T03:08:49.010Z,0.85
2019-01-19T03:11:35.612Z,0.83
2019-01-19T03:14:15.932Z,0.84
2019-01-19T03:16:50.323Z,0.82
2019-01-19T03:19:36.937Z,0.81
2019-01-19T03:22:26.930Z,0.81
2019-01-19T03:25:18.105Z,0.79
2019-01-19T03:28:10.878Z,0.77
2019-01-19T03:31:01.857Z,0.75
2019-01-19T03:33:45.088Z,0.72
2019-01-19T03:36:25.692Z,0.70
2019-01-19T03:39:09.407Z,0.71
2019-01-19T03:41:44.774Z,0.70
2019-01-19T03:44:34.507Z,0.67
2019-01-19T03:47:14.809Z,0.68
2019-01-19T03:50:07.215Z,0.67
2019-01-19T03:52:38.726Z,0.64
2019-01-19T03:55:10.244Z,0.62
2019-01-19T03:57:59.956Z,0.64
2019-01-19T04:00:40.253Z,0.65
2019-01-19T04:03:23.795Z,0.66
2019-01-19T04:06:29.946Z,0.64
2019-01-19T04:09:21.193Z,0.65
2019-01-19T04:12:01.500Z,0.63
2019-01-19T04:14:54.212Z,0.61
2019-01-19T04:17:31.543Z,0.59
2019-01-19T04:20:19.838Z,0.56
2019-01-19T04:22:48.253Z,0.57
2019-01-19T04:25:19.716Z,0.54
2019-01-19T04:27:48.159Z,0.53
2019-01-19T04:30:16.689Z,0.53
2019-01-19T04:32:45.108Z,0.52
2019-01-19T04:35:13.608Z,0.51
2019-01-19T04:37:42.066Z,0.50
2019-01-19T04:40:12.517Z,0.51
2019-01-19T04:42:42.888Z,0.50
2019-01-19T04:45:11.750Z,0.49
2019-01-19T04:47:40.211Z,0.49
2019-01-19T04:50:10.683Z,0.49
2019-01-19T04:52:39.140Z,0.47
2019-01-19T04:55:08.101Z,0.47
2019-01-19T04:57:36.625Z,0.47
2019-01-19T05:00:08.105Z,0.47
2019-01-19T05:02:36.823Z,0.46
2019-01-19T05:05:06.279Z,0.45
2019-01-19T05:07:34.956Z,0.44
2019-01-19T05:10:05.117Z,0.42
2019-01-19T05:12:33.563Z,0.42
2019-01-19T05:15:02.044Z,0.42
2019-01-19T05:17:30.500Z,0.43
2019-01-19T05:19:58.920Z,0.41
2019-01-19T05:22:27.391Z,0.39
2019-01-19T05:24:57.374Z,0.37
2019-01-19T05:27:25.829Z,0.36
2019-01-19T05:29:54.285Z,0.39
2019-01-19T05:32:22.939Z,0.38
2019-01-19T05:34:51.762Z,0.36
2019-01-19T05:37:20.177Z,0.35
2019-01-19T05:39:48.628Z,0.35
2019-01-19T05:42:17.068Z,0.37
2019-01-19T05:44:45.511Z,0.37
2019-01-19T05:47:13.931Z,0.36
2019-01-19T05:49:42.367Z,0.34
2019-01-19T05:52:10.862Z,0.35
2019-01-19T05:54:39.297Z,0.34
2019-01-19T05:57:07.720Z,0.33
2019-01-19T05:59:36.291Z,0.34
2019-01-19T06:02:04.949Z,0.32
2019-01-19T06:04:33.408Z,0.31
2019-01-19T06:07:01.832Z,0.29
2019-01-19T06:09:30.286Z,0.28
2019-01-19T06:11:58.782Z,0.28
2019-01-19T06:14:27.201Z,0.31
2019-01-19T06:16:55.647Z,0.28
2019-01-19T06:19:27.254Z,0.29
2019-01-19T06:21:57.069Z,0.27
2019-01-19T06:24:25.566Z,0.23
2019-01-19T06:26:54.009Z,0.21
2019-01-19T06:29:22.934Z,0.21
2019-01-19T06:31:51.556Z,0.20
2019-01-19T06:34:19.979Z,0.19
2019-01-19T06:36:54.865Z,0.17
2019-01-19T06:39:18.707Z,0.14
2019-01-19T06:41:47.268Z,0.13
2019-01-19T06:44:15.699Z,0.11
2019-01-19T06:46:44.203Z,0.11
2019-01-19T06:49:12.625Z,0.08
2019-01-19T06:51:41.259Z,0.07
2019-01-19T06:54:10.084Z,0.07
2019-01-19T06:56:38.571Z,0.05
2019-01-19T06:59:07.011Z,0.07
2019-01-19T07:01:35.602Z,0.05
2019-01-19T07:04:04.219Z,0.04
2019-01-19T07:06:32.631Z,0.04
2019-01-19T07:09:01.075Z,0.04
2019-01-19T07:11:30.382Z,0.04
2019-01-19T07:13:59.148Z,0.04
2019-01-19T07:16:27.621Z,0.09
2019-01-19T07:18:56.065Z,0.19
2019-01-19T07:21:27.614Z,0.25
2019-01-19T07:23:56.051Z,0.30
2019-01-19T07:26:24.464Z,0.33
2019-01-19T07:28:52.995Z,0.32
2019-01-19T07:31:21.490Z,0.32
2019-01-19T07:33:49.943Z,0.28
2019-01-19T07:36:18.383Z,0.23
2019-01-19T07:38:46.931Z,0.19
2019-01-19T07:41:15.346Z,0.15
2019-01-19T07:43:44.001Z,0.14
2019-01-19T07:46:12.769Z,0.13
2019-01-19T07:48:41.265Z,0.12
2019-01-19T07:51:11.439Z,0.12
2019-01-19T07:53:40.121Z,0.08
2019-01-19T07:56:08.590Z,0.07
2019-01-19T07:58:37.041Z,0.07
2019-01-19T08:01:05.537Z,0.05
2019-01-19T08:03:34.086Z,0.05
2019-01-19T08:06:02.553Z,0.06
2019-01-19T08:08:30.997Z,0.06
2019-01-19T08:10:59.461Z,0.06
2019-01-19T08:13:27.946Z,0.04
2019-01-19T08:15:56.390Z,0.06
2019-01-19T08:18:24.808Z,0.05
2019-01-19T08:20:53.356Z,0.05
2019-01-19T08:23:21.755Z,0.06
2019-01-19T08:25:50.667Z,0.07
2019-01-19T08:28:19.084Z,0.06
2019-01-19T08:30:47.662Z,0.08
2019-01-19T08:33:16.169Z,0.08
2019-01-19T08:35:45.398Z,0.09
2019-01-19T08:38:13.821Z,0.10
2019-01-19T08:40:42.359Z,0.13
2019-01-19T08:43:18.607Z,0.14
2019-01-19T08:45:47.228Z,0.16
2019-01-19T08:48:16.020Z,0.17
2019-01-19T08:50:44.476Z,0.17
2019-01-19T08:53:12.864Z,0.17
2019-01-19T08:55:41.300Z,0.18
2019-01-19T08:58:09.804Z,0.19
2019-01-19T09:00:38.295Z,0.20
2019-01-19T09:03:06.756Z,0.23
2019-01-19T09:05:35.165Z,0.21
2019-01-19T09:08:03.704Z,0.24
2019-01-19T09:10:32.187Z,0.24
2019-01-19T09:13:00.665Z,0.25
2019-01-19T09:15:29.297Z,0.24
2019-01-19T09:17:57.822Z,0.25
2019-01-19T09:20:26.314Z,0.27
2019-01-19T09:22:59.368Z,0.26
2019-01-19T09:25:27.850Z,0.28
2019-01-19T09:27:56.426Z,0.30
2019-01-19T09:30:25.390Z,0.37
2019-01-19T09:32:54.030Z,0.42
2019-01-19T09:35:22.542Z,0.46
2019-01-19T09:37:51.144Z,0.52
2019-01-19T09:40:19.820Z,0.55
2019-01-19T09:42:48.427Z,0.63
2019-01-19T09:45:19.085Z,0.69
2019-01-19T09:47:47.849Z,0.78
2019-01-19T09:50:21.264Z,0.88
2019-01-19T09:52:49.980Z,0.96
2019-01-19T09:55:18.532Z,1.08
2019-01-19T09:57:47.319Z,1.21
2019-01-19T10:00:24.431Z,1.31
2019-01-19T10:02:52.903Z,1.42
2019-01-19T10:05:24.429Z,1.53
2019-01-19T10:07:53.034Z,1.60
2019-01-19T10:10:21.635Z,1.73
2019-01-19T10:12:50.128Z,1.89
2019-01-19T10:15:21.014Z,2.04
2019-01-19T10:17:49.607Z,2.20
2019-01-19T10:20:20.882Z,2.33
2019-01-19T10:22:49.435Z,2.50
2019-01-19T10:25:18.099Z,2.62
2019-01-19T10:27:46.851Z,2.73
2019-01-19T10:30:17.947Z,2.85
2019-01-19T10:32:46.667Z,2.95
2019-01-19T10:35:15.881Z,2.99
2019-01-19T10:37:44.601Z,3.09
2019-01-19T10:40:17.856Z,3.20
2019-01-19T10:42:46.548Z,3.23
2019-01-19T10:45:17.505Z,3.32
2019-01-19T10:47:46.086Z,3.36
2019-01-19T10:50:20.429Z,3.42
2019-01-19T10:52:49.190Z,3.49
2019-01-19T10:55:22.811Z,3.57
2019-01-19T10:57:51.503Z,3.70
2019-01-19T11:00:28.491Z,3.81
2019-01-19T11:02:57.887Z,3.90
2019-01-19T11:05:26.521Z,3.99
2019-01-19T11:07:55.428Z,4.08
2019-01-19T11:10:29.798Z,4.17
2019-01-19T11:12:58.490Z,4.32
2019-01-19T11:15:27.161Z,4.43
2019-01-19T11:17:55.970Z,4.52
2019-01-19T11:20:26.798Z,4.64
2019-01-19T11:22:56.278Z,4.77
2019-01-19T11:25:24.842Z,4.85
2019-01-19T11:27:53.437Z,4.97
2019-01-19T11:30:26.993Z,5.14
2019-01-19T11:32:55.593Z,5.33
2019-01-19T11:35:24.141Z,5.51
2019-01-19T11:37:52.752Z,5.64
2019-01-19T11:40:30.030Z,5.85
2019-01-19T11:42:58.538Z,6.04
2019-01-19T11:45:27.194Z,6.27
2019-01-19T11:47:55.764Z,6.44
2019-01-19T11:50:24.312Z,6.54
2019-01-19T11:52:52.961Z,6.67
2019-01-19T11:55:21.614Z,6.88
2019-01-19T11:57:52.510Z,7.05
2019-01-19T12:00:26.362Z,7.16
2019-01-19T12:02:55.387Z,7.41
2019-01-19T12:05:24.811Z,7.54
2019-01-19T12:07:53.309Z,7.73
2019-01-19T12:10:23.887Z,7.97
2019-01-19T12:12:52.312Z,8.18
2019-01-19T12:15:20.902Z,8.30
2019-01-19T12:17:49.450Z,8.40
2019-01-19T12:20:41.308Z,8.54
2019-01-19T12:23:10.115Z,8.64
2019-01-19T12:25:38.664Z,8.86
2019-01-19T12:28:07.235Z,9.04
2019-01-19T12:30:36.200Z,9.20
2019-01-19T12:33:05.535Z,9.35
2019-01-19T12:35:34.141Z,9.43
2019-01-19T12:38:03.205Z,9.65
2019-01-19T12:40:31.786Z,9.72
2019-01-19T12:43:06.059Z,9.76
2019-01-19T12:45:39.575Z,9.80
2019-01-19T12:48:08.002Z,9.94
2019-01-19T12:50:36.590Z,10.05
2019-01-19T12:53:05.262Z,10.15
2019-01-19T12:55:33.854Z,10.33
2019-01-19T12:58:02.338Z,10.44
2019-01-19T13:00:33.759Z,10.48
2019-01-19T13:03:02.419Z,10.37
2019-01-19T13:05:43.809Z,10.16
2019-01-19T13:08:15.676Z,10.17
2019-01-19T13:10:47.192Z,10.31
2019-01-19T13:13:15.848Z,10.42
2019-01-19T13:15:50.581Z,10.52
2019-01-19T13:18:39.949Z,10.61
2019-01-19T13:21:37.526Z,10.55
2019-01-19T13:24:14.946Z,10.56
2019-01-19T13:27:01.547Z,10.56
2019-01-19T13:29:33.114Z,10.68
2019-01-19T13:32:22.507Z,10.66
2019-01-19T13:35:02.815Z,10.66
2019-01-19T13:37:37.460Z,10.43
2019-01-19T13:40:31.405Z,10.28
2019-01-19T13:43:21.061Z,10.21
2019-01-19T13:45:52.531Z,10.07
2019-01-19T13:48:27.128Z,10.02
2019-01-19T13:51:19.196Z,10.03
2019-01-19T13:54:02.734Z,10.05
2019-01-19T13:56:49.112Z,9.93
2019-01-19T13:59:23.447Z,9.52
2019-01-19T14:02:17.584Z,8.91
2019-01-19T14:05:04.184Z,8.57
2019-01-19T14:07:47.706Z,8.35
2019-01-19T14:10:19.195Z,8.18
2019-01-19T14:12:59.705Z,7.96
2019-01-19T14:15:31.211Z,7.76
2019-01-19T14:18:08.593Z,7.57
2019-01-19T14:20:52.156Z,7.44
2019-01-19T14:23:39.126Z,7.38
2019-01-19T14:26:26.938Z,7.35
2019-01-19T14:28:58.505Z,7.24
2019-01-19T14:31:58.558Z,7.01
2019-01-19T14:34:48.381Z,6.90
2019-01-19T14:37:48.259Z,6.80
2019-01-19T14:40:22.592Z,6.73
2019-01-19T14:42:56.749Z,6.55
2019-01-19T14:45:31.288Z,6.45
2019-01-19T14:48:11.640Z,6.40
2019-01-19T14:50:49.196Z,6.35
2019-01-19T14:53:35.731Z,6.30
2019-01-19T14:56:10.319Z,6.22
2019-01-19T14:58:44.443Z,6.14
2019-01-19T15:01:18.431Z,6.06
2019-01-19T15:04:09.702Z,5.98
2019-01-19T15:06:44.044Z,5.87
2019-01-19T15:09:27.319Z,5.79
2019-01-19T15:12:04.602Z,5.74
2019-01-19T15:14:41.869Z,5.68
2019-01-19T15:17:16.274Z,5.65
2019-01-19T15:19:59.924Z,5.61
2019-01-19T15:22:46.403Z,5.56
2019-01-19T15:25:23.790Z,5.52
2019-01-19T15:28:13.424Z,5.46
2019-01-19T15:30:57.046Z,5.40
2019-01-19T15:33:37.476Z,5.37
2019-01-19T15:36:08.966Z,5.33
2019-01-19T15:38:40.493Z,5.29
2019-01-19T15:41:21.050Z,5.24
2019-01-19T15:44:13.978Z,5.18
2019-01-19T15:47:02.917Z,5.15
2019-01-19T15:49:50.629Z,5.08
2019-01-19T15:52:27.930Z,5.01
2019-01-19T15:55:05.291Z,4.99
2019-01-19T15:57:45.477Z,4.93
2019-01-19T16:00:24.689Z,4.87
2019-01-19T16:03:14.397Z,4.81
2019-01-19T16:05:58.018Z,4.73
2019-01-19T16:08:49.249Z,4.68
2019-01-19T16:11:26.754Z,4.64
2019-01-19T16:14:14.901Z,4.59
2019-01-19T16:16:58.161Z,4.53
2019-01-19T16:19:47.859Z,4.48
2019-01-19T16:22:25.363Z,4.43
2019-01-19T16:25:15.045Z,4.40
2019-01-19T16:27:55.242Z,4.35
2019-01-19T16:30:41.514Z,4.32
2019-01-19T16:33:21.598Z,4.28
2019-01-19T16:35:58.784Z,4.25
2019-01-19T16:38:45.315Z,4.23
2019-01-19T16:41:35.131Z,4.19
2019-01-19T16:44:27.974Z,4.13
2019-01-19T16:47:25.194Z,4.09
2019-01-19T16:50:14.535Z,4.07
2019-01-19T16:52:46.028Z,4.04
2019-01-19T16:55:32.561Z,4.03
2019-01-19T16:58:07.281Z,3.99
2019-01-19T17:00:58.508Z,3.94
2019-01-19T17:03:39.685Z,3.90
2019-01-19T17:06:14.152Z,3.87
2019-01-19T17:09:09.698Z,3.83
2019-01-19T17:11:59.144Z,3.78
2019-01-19T17:14:33.566Z,3.77
2019-01-19T17:17:11.108Z,3.74
2019-01-19T17:19:57.650Z,3.70
2019-01-19T17:22:40.391Z,3.67
2019-01-19T17:25:14.655Z,3.64
2019-01-19T17:27:57.737Z,3.60
2019-01-19T17:30:35.135Z,3.56
2019-01-19T17:33:21.957Z,3.55
2019-01-19T17:36:02.323Z,3.53
2019-01-19T17:38:36.586Z,3.49
2019-01-19T17:41:32.151Z,3.42
2019-01-19T17:44:15.969Z,3.42
2019-01-19T17:46:58.816Z,3.40
2019-01-19T17:49:33.117Z,3.39
2019-01-19T17:52:07.455Z,3.36
2019-01-19T17:54:50.992Z,3.34
2019-01-19T17:57:42.072Z,3.31
2019-01-19T18:00:13.850Z,3.26
2019-01-19T18:03:06.864Z,3.25
2019-01-19T18:05:41.362Z,3.23
2019-01-19T18:08:22.011Z,3.20
2019-01-19T18:11:09.953Z,3.19
2019-01-19T18:13:50.451Z,3.16
2019-01-19T18:16:41.576Z,3.11
2019-01-19T18:19:16.059Z,3.10
2019-01-19T18:22:03.954Z,3.05
2019-01-19T18:24:50.523Z,3.02
2019-01-19T18:27:41.440Z,3.01
2019-01-19T18:30:41.891Z,3.00
2019-01-19T18:33:25.568Z,2.97
2019-01-19T18:36:02.865Z,2.95
2019-01-19T18:38:55.314Z,2.92
2019-01-19T18:41:29.882Z,2.90
2019-01-19T18:44:13.209Z,2.87
2019-01-19T18:46:53.619Z,2.86
2019-01-19T18:49:36.919Z,2.84
2019-01-19T18:52:25.243Z,2.80
2019-01-19T18:55:02.395Z,2.75
2019-01-19T18:57:45.895Z,2.74
2019-01-19T19:00:26.479Z,2.70
2019-01-19T19:03:12.979Z,2.66
2019-01-19T19:05:58.959Z,2.63
2019-01-19T19:08:47.013Z,2.64
2019-01-19T19:11:40.879Z,2.59
2019-01-19T19:14:27.185Z,2.56
2019-01-19T19:17:16.011Z,2.54
2019-01-19T19:19:51.043Z,2.50
2019-01-19T19:22:44.723Z,2.49
2019-01-19T19:25:25.556Z,2.46
2019-01-19T19:28:15.008Z,2.44
2019-01-19T19:31:04.833Z,2.40
2019-01-19T19:33:36.358Z,2.35
2019-01-19T19:36:10.612Z,2.33
2019-01-19T19:38:44.682Z,2.31
2019-01-19T19:41:19.274Z,2.31
2019-01-19T19:44:19.570Z,2.30
2019-01-19T19:47:06.520Z,2.30
2019-01-19T19:49:43.547Z,2.26
2019-01-19T19:52:12.075Z,2.23
2019-01-19T19:54:43.551Z,2.23
2019-01-19T19:57:12.215Z,2.20
2019-01-19T19:59:40.680Z,2.16
2019-01-19T20:02:09.307Z,2.14
2019-01-19T20:04:37.782Z,2.10
2019-01-19T20:07:06.612Z,2.10
2019-01-19T20:09:35.324Z,2.06
2019-01-19T20:12:06.401Z,2.04
2019-01-19T20:14:35.170Z,2.03
2019-01-19T20:17:03.810Z,2.01
2019-01-19T20:19:32.368Z,1.99
2019-01-19T20:22:00.805Z,1.98
2019-01-19T20:24:29.375Z,1.98
2019-01-19T20:26:57.987Z,1.97
2019-01-19T20:29:26.397Z,1.96
2019-01-19T20:31:54.840Z,1.96
2019-01-19T20:34:23.317Z,1.93
2019-01-19T20:36:51.844Z,1.90
2019-01-19T20:39:20.427Z,1.90
2019-01-19T20:41:48.977Z,1.88
2019-01-19T20:44:17.502Z,1.86
2019-01-19T20:46:46.010Z,1.84
2019-01-19T20:49:16.070Z,1.81
2019-01-19T20:51:44.493Z,1.79
2019-01-19T20:54:13.104Z,1.79
2019-01-19T20:56:41.621Z,1.76
2019-01-19T20:59:10.273Z,1.74
2019-01-19T21:01:38.743Z,1.72
2019-01-19T21:04:07.261Z,1.71
2019-01-19T21:06:35.837Z,1.68
2019-01-19T21:09:09.663Z,1.67
2019-01-19T21:11:38.237Z,1.64
2019-01-19T21:14:06.834Z,1.62
2019-01-19T21:16:35.341Z,1.61
2019-01-19T21:19:03.946Z,1.59
2019-01-19T21:21:32.377Z,1.58
2019-01-19T21:24:00.785Z,1.59
2019-01-19T21:26:29.347Z,1.57
2019-01-19T21:28:57.778Z,1.57
2019-01-19T21:31:32.208Z,1.58
2019-01-19T21:34:00.731Z,1.55
2019-01-19T21:36:29.182Z,1.54
2019-01-19T21:38:57.594Z,1.51
2019-01-19T21:41:26.035Z,1.50
2019-01-19T21:43:54.450Z,1.46
2019-01-19T21:46:22.908Z,1.44
2019-01-19T21:48:51.323Z,1.46
2019-01-19T21:51:19.795Z,1.45
2019-01-19T21:53:48.286Z,1.41
2019-01-19T21:56:16.776Z,1.38
2019-01-19T21:58:45.190Z,1.39
2019-01-19T22:01:13.769Z,1.35
2019-01-19T22:03:42.195Z,1.35
2019-01-19T22:06:10.632Z,1.32
2019-01-19T22:08:39.144Z,1.30
2019-01-19T22:11:07.667Z,1.29
2019-01-19T22:13:36.150Z,1.29
2019-01-19T22:16:04.684Z,1.27
2019-01-19T22:18:33.153Z,1.27
2019-01-19T22:21:01.653Z,1.25
2019-01-19T22:23:30.174Z,1.25
2019-01-19T22:25:58.657Z,1.23
2019-01-19T22:28:27.140Z,1.21
2019-01-19T22:30:55.534Z,1.18
2019-01-19T22:33:24.540Z,1.17
2019-01-19T22:35:52.984Z,1.14
2019-01-19T22:38:21.534Z,1.16
2019-01-19T22:40:53.655Z,1.15
2019-01-19T22:43:20.251Z,1.13
2019-01-19T22:45:48.759Z,1.11
2019-01-19T22:48:17.271Z,1.08
2019-01-19T22:50:45.757Z,1.08
2019-01-19T22:53:14.318Z,1.06
2019-01-19T22:55:42.821Z,1.03
2019-01-19T22:58:11.279Z,1.01
2019-01-19T23:00:59.339Z,0.99
2019-01-19T23:03:29.978Z,0.98
2019-01-19T23:05:58.561Z,0.98
2019-01-19T23:08:26.995Z,0.96
2019-01-19T23:11:01.102Z,0.94
2019-01-19T23:13:25.663Z,0.96
2019-01-19T23:15:54.112Z,0.96
2019-01-19T23:18:22.636Z,0.92
2019-01-19T23:20:51.170Z,0.92
2019-01-19T23:23:19.645Z,0.93
2019-01-19T23:25:48.147Z,0.90
2019-01-19T23:28:16.640Z,0.87
2019-01-19T23:30:45.115Z,0.87
2019-01-19T23:33:13.519Z,0.85
2019-01-19T23:35:41.956Z,0.86
2019-01-19T23:38:10.382Z,0.86
2019-01-19T23:40:38.836Z,0.86
2019-01-19T23:43:07.401Z,0.85
2019-01-19T23:45:35.843Z,0.85
2019-01-19T23:48:04.495Z,0.85
2019-01-19T23:50:32.935Z,0.85
2019-01-19T23:53:01.347Z,0.86
2019-01-19T23:55:29.805Z,0.84
2019-01-19T23:57:58.271Z,0.83
